Time;durP1;ratioP1;P1;durP2;ratioP2;P2;SDS_P1;SDS_P2;PMS_P1;PMS_P2;Temp;Humidity;BMP_temperature;BMP_pressure;BME280_temperature;BME280_humidity;BME280_pressure;Samples;Min_cycle;Max_cycle;Signal;HPM_P1;HPM_P2
2024/01/15 00:00:26;;;;;;;7.80;1.38;;;2.90;88.90;;;;;;9175396;19;20027;-72
2024/01/15 00:03:34;;;;;;;11.88;2.15;;;2.90;88.90;;;;;;9175378;19;20021;-72
2024/01/15 00:06:40;;;;;;;2.65;1.20;;;2.90;88.90;;;;;;9175267;19;20040;-71
2024/01/15 00:09:50;;;;;;;12.45;1.95;;;2.80;88.90;;;;;;9176516;19;20374;-72
2024/01/15 00:12:56;;;;;;;10.98;1.75;;;2.80;88.90;;;;;;9175098;19;20021;-71
2024/01/15 00:16:03;;;;;;;4.63;1.17;;;2.80;88.90;;;;;;9171768;19;20019;-71
2024/01/15 00:19:09;;;;;;;11.82;1.70;;;2.80;88.90;;;;;;9175533;19;20015;-72
2024/01/15 00:22:17;;;;;;;12.90;1.73;;;2.70;89.00;;;;;;9170907;19;20022;-71
2024/01/15 00:25:25;;;;;;;7.43;1.60;;;2.70;88.90;;;;;;9174320;19;20054;-72
2024/01/15 00:28:32;;;;;;;13.98;1.92;;;2.70;89.00;;;;;;9174845;19;20011;-71
2024/01/15 00:31:38;;;;;;;6.05;1.50;;;2.70;88.90;;;;;;9173622;19;20094;-71
2024/01/15 00:34:46;;;;;;;7.18;1.38;;;2.70;88.90;;;;;;9172415;19;20025;-71
2024/01/15 00:37:51;;;;;;;14.40;1.90;;;2.70;89.00;;;;;;9174093;19;20018;-71
2024/01/15 00:41:01;;;;;;;10.15;1.30;;;2.70;88.90;;;;;;9180067;19;20019;-70
2024/01/15 00:44:07;;;;;;;8.00;1.45;;;2.70;88.90;;;;;;9183544;19;20035;-71
2024/01/15 00:47:15;;;;;;;7.30;1.73;;;2.60;88.90;;;;;;9184032;19;20330;-71
2024/01/15 00:50:20;;;;;;;7.25;1.40;;;2.60;88.90;;;;;;9183496;19;20017;-71
2024/01/15 00:53:28;;;;;;;9.57;1.55;;;2.60;89.00;;;;;;9182134;19;20022;-71
2024/01/15 00:56:36;;;;;;;16.58;1.83;;;2.60;88.90;;;;;;9182123;19;20598;-72
2024/01/15 00:59:44;;;;;;;11.90;1.33;;;2.50;88.80;;;;;;9184697;19;20026;-71
2024/01/15 01:02:49;;;;;;;7.85;1.50;;;2.50;88.80;;;;;;9180723;19;20010;-71
2024/01/15 01:05:57;;;;;;;6.30;1.38;;;2.50;88.90;;;;;;9182228;19;20029;-72
2024/01/15 01:09:03;;;;;;;7.18;1.40;;;2.50;88.90;;;;;;9182802;19;20019;-71
2024/01/15 01:12:13;;;;;;;5.60;1.38;;;2.50;88.90;;;;;;9182748;19;20345;-71
2024/01/15 01:15:19;;;;;;;15.50;1.50;;;2.50;88.90;;;;;;9182586;19;20146;-71
2024/01/15 01:18:27;;;;;;;16.90;2.40;;;2.50;88.90;;;;;;9178607;19;20046;-70
2024/01/15 01:21:33;;;;;;;6.88;1.58;;;2.50;88.90;;;;;;9181192;19;20010;-71
2024/01/15 01:24:40;;;;;;;14.05;1.75;;;2.40;88.80;;;;;;9182670;19;20356;-71
2024/01/15 01:27:49;;;;;;;10.60;1.45;;;2.40;88.90;;;;;;9179352;19;20047;-71
2024/01/15 01:30:56;;;;;;;6.85;1.30;;;2.40;88.80;;;;;;9181660;19;20015;-72
2024/01/15 01:34:02;;;;;;;5.70;1.13;;;2.40;88.90;;;;;;9181517;19;20014;-70
2024/01/15 01:37:12;;;;;;;12.30;1.60;;;2.40;88.90;;;;;;9180790;19;20018;-71
2024/01/15 01:40:18;;;;;;;9.73;1.38;;;2.40;88.90;;;;;;9181558;19;20031;-70
2024/01/15 01:43:28;;;;;;;10.15;1.58;;;2.40;88.90;;;;;;9179083;19;20018;-70
2024/01/15 01:46:34;;;;;;;7.43;1.05;;;2.40;89.50;;;;;;9181402;19;20017;-69
2024/01/15 01:49:42;;;;;;;6.60;1.42;;;2.40;88.90;;;;;;9181094;19;20019;-73
2024/01/15 01:52:48;;;;;;;18.45;1.70;;;2.40;88.80;;;;;;9180541;19;20011;-72
2024/01/15 01:55:57;;;;;;;9.30;1.48;;;2.30;88.80;;;;;;9181452;19;20026;-71
2024/01/15 01:59:06;;;;;;;13.38;1.98;;;2.30;88.80;;;;;;9181117;19;20007;-71
2024/01/15 02:02:15;;;;;;;12.30;1.30;;;2.30;88.80;;;;;;9179316;19;20030;-72
2024/01/15 02:05:22;;;;;;;9.82;2.03;;;2.30;88.80;;;;;;9180883;19;20014;-72
2024/01/15 02:08:30;;;;;;;14.95;1.50;;;2.30;89.50;;;;;;9177260;19;20385;-71
2024/01/15 02:11:35;;;;;;;12.65;2.63;;;2.30;88.90;;;;;;9180734;19;20025;-72
2024/01/15 02:14:45;;;;;;;13.40;2.28;;;2.30;88.90;;;;;;9180871;19;20021;-71
2024/01/15 02:18:02;;;;;;;10.23;1.48;;;2.30;88.90;;;;;;9174095;19;20349;-72
2024/01/15 02:21:10;;;;;;;7.30;1.45;;;2.20;88.90;;;;;;9179430;19;20032;-72
2024/01/15 02:24:18;;;;;;;10.88;1.90;;;2.30;89.00;;;;;;9178090;19;20052;-73
2024/01/15 02:27:26;;;;;;;17.48;2.58;;;2.30;89.00;;;;;;9177725;19;20017;-71
2024/01/15 02:30:33;;;;;;;19.90;1.27;;;2.30;89.00;;;;;;9178456;19;20026;-73
2024/01/15 02:33:42;;;;;;;7.43;1.48;;;2.30;89.00;;;;;;9178740;19;20030;-72
2024/01/15 02:36:47;;;;;;;16.92;1.60;;;2.30;89.10;;;;;;9180241;19;20014;-73
2024/01/15 02:39:58;;;;;;;9.60;1.30;;;2.30;89.00;;;;;;9179312;19;20034;-72
2024/01/15 02:43:03;;;;;;;8.75;1.60;;;2.30;89.00;;;;;;9177699;19;20026;-72
2024/01/15 02:46:11;;;;;;;11.70;2.00;;;2.30;89.60;;;;;;9176732;19;20038;-72
2024/01/15 02:49:16;;;;;;;12.77;2.35;;;2.30;89.10;;;;;;9177332;19;20022;-72
2024/01/15 02:52:24;;;;;;;11.63;1.80;;;2.40;89.10;;;;;;9178591;19;20029;-72
2024/01/15 02:55:32;;;;;;;7.72;1.40;;;2.40;89.10;;;;;;9178162;19;20022;-72
2024/01/15 02:58:40;;;;;;;12.90;1.63;;;2.40;89.10;;;;;;9177726;19;20014;-72
2024/01/15 03:01:45;;;;;;;14.20;1.38;;;2.40;89.10;;;;;;9175920;19;20010;-72
2024/01/15 03:04:53;;;;;;;14.38;1.80;;;2.40;89.00;;;;;;9176593;19;20029;-72
2024/01/15 03:07:58;;;;;;;13.65;1.35;;;2.50;89.10;;;;;;9174744;19;20014;-74
2024/01/15 03:11:08;;;;;;;12.63;2.67;;;2.50;89.00;;;;;;9179351;19;20286;-72
2024/01/15 03:14:14;;;;;;;14.82;2.22;;;2.50;89.00;;;;;;9176394;19;20018;-73
2024/01/15 03:17:22;;;;;;;14.45;1.70;;;2.50;89.00;;;;;;9172410;19;20458;-73
2024/01/15 03:20:27;;;;;;;13.50;1.80;;;2.50;88.90;;;;;;9176644;19;20026;-73
2024/01/15 03:23:35;;;;;;;9.63;1.85;;;2.50;89.00;;;;;;9174050;19;20014;-72
2024/01/15 03:26:43;;;;;;;7.10;1.42;;;2.50;89.00;;;;;;9174700;19;20019;-72
2024/01/15 03:29:51;;;;;;;11.15;1.50;;;2.50;89.00;;;;;;9175941;19;20357;-71
2024/01/15 03:32:56;;;;;;;9.57;1.73;;;2.50;88.90;;;;;;9177089;19;20025;-72
2024/01/15 03:36:04;;;;;;;8.82;1.25;;;2.50;88.90;;;;;;9176710;19;20011;-72
2024/01/15 03:39:09;;;;;;;10.68;1.48;;;2.50;88.90;;;;;;9177088;19;20014;-72
2024/01/15 03:42:20;;;;;;;11.75;1.55;;;2.60;89.00;;;;;;9173528;19;20387;-72
2024/01/15 03:45:25;;;;;;;11.07;2.45;;;2.60;88.90;;;;;;9176909;19;20408;-72
2024/01/15 03:48:33;;;;;;;13.40;1.67;;;2.60;88.90;;;;;;9176909;19;20022;-72
2024/01/15 03:51:39;;;;;;;7.45;1.10;;;2.50;88.80;;;;;;9175463;19;20102;-72
2024/01/15 03:54:47;;;;;;;9.93;1.40;;;2.50;88.70;;;;;;9174415;19;20014;-72
2024/01/15 03:57:55;;;;;;;21.23;2.15;;;2.60;89.40;;;;;;9175671;19;20019;-72
2024/01/15 04:01:03;;;;;;;5.30;1.27;;;2.60;88.90;;;;;;9174898;19;20504;-71
2024/01/15 04:04:09;;;;;;;11.50;1.73;;;2.60;88.90;;;;;;9173295;19;20020;-73
2024/01/15 04:07:16;;;;;;;12.82;2.10;;;2.60;88.80;;;;;;9174278;19;20021;-72
2024/01/15 04:10:22;;;;;;;17.13;2.25;;;2.60;88.80;;;;;;9175097;19;20026;-72
2024/01/15 04:13:35;;;;;;;16.10;1.50;;;2.60;88.80;;;;;;9175325;19;20022;-72
2024/01/15 04:16:42;;;;;;;12.45;1.40;;;2.60;88.80;;;;;;9173424;19;20015;-72
2024/01/15 04:19:50;;;;;;;8.77;1.48;;;2.60;88.70;;;;;;9175795;19;20095;-72
2024/01/15 04:22:56;;;;;;;15.23;1.98;;;2.60;88.70;;;;;;9171731;19;20469;-72
2024/01/15 04:26:03;;;;;;;12.55;1.73;;;2.50;88.70;;;;;;9173320;19;20007;-72
2024/01/15 04:29:12;;;;;;;5.35;1.35;;;2.60;88.80;;;;;;9175053;19;20018;-72
2024/01/15 04:32:19;;;;;;;14.13;1.75;;;2.60;88.70;;;;;;9175697;19;20025;-72
2024/01/15 04:35:25;;;;;;;6.00;1.40;;;2.50;88.80;;;;;;9173308;19;20361;-72
2024/01/15 04:38:33;;;;;;;11.38;1.73;;;2.50;88.70;;;;;;9172728;19;20034;-73
2024/01/15 04:41:38;;;;;;;12.15;1.20;;;2.60;88.80;;;;;;9174266;19;20044;-73
2024/01/15 04:44:48;;;;;;;11.43;1.42;;;2.60;88.80;;;;;;9172170;19;20021;-72
2024/01/15 04:47:54;;;;;;;10.60;1.58;;;2.60;88.80;;;;;;9174523;19;20019;-72
2024/01/15 04:51:01;;;;;;;11.40;1.67;;;2.60;88.80;;;;;;9173617;19;20015;-72
2024/01/15 04:54:07;;;;;;;11.00;1.67;;;2.60;88.80;;;;;;9172383;19;20018;-73
2024/01/15 04:57:15;;;;;;;14.32;1.10;;;2.60;88.80;;;;;;9173639;19;20014;-72
2024/01/15 05:00:23;;;;;;;5.28;1.20;;;2.60;88.80;;;;;;9172864;19;20007;-72
2024/01/15 05:03:31;;;;;;;13.35;1.17;;;2.60;88.80;;;;;;9172708;19;20034;-72
2024/01/15 05:06:36;;;;;;;10.13;1.38;;;2.60;88.80;;;;;;9169559;19;20033;-73
2024/01/15 05:09:46;;;;;;;13.68;2.13;;;2.60;88.80;;;;;;9173628;19;20052;-74
2024/01/15 05:12:52;;;;;;;15.05;1.90;;;2.60;88.80;;;;;;9174064;19;20020;-75
2024/01/15 05:16:02;;;;;;;11.00;1.15;;;2.60;88.80;;;;;;9169305;19;20018;-72
2024/01/15 05:19:12;;;;;;;6.40;1.17;;;2.60;88.80;;;;;;9172783;19;20469;-71
2024/01/15 05:22:21;;;;;;;9.95;1.40;;;2.60;88.80;;;;;;9172515;19;20380;-70
2024/01/15 05:25:26;;;;;;;11.65;1.45;;;2.60;88.80;;;;;;9171014;19;20019;-71
2024/01/15 05:28:34;;;;;;;3.88;1.33;;;2.60;88.80;;;;;;9181996;19;20019;-71
2024/01/15 05:31:47;;;;;;;8.15;1.88;;;2.60;88.80;;;;;;9183488;19;20441;-70
2024/01/15 05:34:55;;;;;;;5.95;1.17;;;2.60;88.80;;;;;;9182997;19;20018;-73
2024/01/15 05:38:01;;;;;;;11.32;1.38;;;2.60;88.80;;;;;;9179552;19;20532;-70
2024/01/15 05:41:09;;;;;;;5.65;1.15;;;2.60;88.80;;;;;;9182157;19;20369;-70
2024/01/15 05:44:14;;;;;;;5.68;1.50;;;2.60;88.80;;;;;;9181138;19;20586;-70
2024/01/15 05:47:24;;;;;;;1.90;0.73;;;2.60;88.80;;;;;;9180282;19;20380;-70
2024/01/15 05:50:30;;;;;;;5.60;1.17;;;2.60;88.90;;;;;;9181181;19;20018;-70
2024/01/15 05:53:40;;;;;;;6.10;0.88;;;2.60;88.90;;;;;;9181002;19;20483;-71
2024/01/15 05:56:45;;;;;;;3.70;1.00;;;2.70;88.90;;;;;;9181379;19;20099;-71
2024/01/15 05:59:53;;;;;;;10.52;1.40;;;2.60;88.80;;;;;;9180624;19;20018;-70
2024/01/15 06:03:01;;;;;;;6.28;1.40;;;2.60;88.80;;;;;;9180662;19;20015;-70
2024/01/15 06:06:11;;;;;;;5.78;2.33;;;2.60;88.80;;;;;;9180528;19;20378;-70
2024/01/15 06:09:17;;;;;;;5.40;1.63;;;2.60;89.40;;;;;;9179903;19;20458;-70
2024/01/15 06:12:26;;;;;;;3.90;1.10;;;2.60;88.80;;;;;;9178084;19;20019;-71
2024/01/15 06:15:31;;;;;;;6.70;1.30;;;2.60;88.80;;;;;;9178115;19;20114;-71
2024/01/15 06:18:44;;;;;;;3.85;1.60;;;2.70;88.80;;;;;;9175793;19;20029;-71
2024/01/15 06:21:49;;;;;;;2.63;0.95;;;2.60;88.70;;;;;;9179018;19;20010;-72
2024/01/15 06:24:58;;;;;;;2.95;1.08;;;2.60;88.80;;;;;;9178898;19;20021;-70
2024/01/15 06:28:04;;;;;;;8.00;1.13;;;2.70;88.90;;;;;;9179400;19;20770;-71
2024/01/15 06:31:18;;;;;;;1.05;0.50;;;2.60;88.90;;;;;;9178809;19;20022;-71
2024/01/15 06:34:27;;;;;;;4.25;1.08;;;2.60;88.90;;;;;;9180920;19;20020;-72
2024/01/15 06:37:36;;;;;;;9.40;1.98;;;2.60;88.90;;;;;;9178857;19;20018;-71
2024/01/15 06:40:45;;;;;;;1.88;1.05;;;2.60;88.90;;;;;;9176762;19;20044;-70
2024/01/15 06:43:55;;;;;;;4.85;1.17;;;2.70;88.90;;;;;;9178272;19;20377;-70
2024/01/15 06:47:03;;;;;;;4.32;0.98;;;2.60;88.90;;;;;;9178748;19;20017;-71
2024/01/15 06:50:16;;;;;;;3.40;1.15;;;2.70;88.80;;;;;;9177201;19;20015;-71
2024/01/15 06:53:22;;;;;;;6.03;1.15;;;2.60;88.70;;;;;;9177463;19;20015;-70
2024/01/15 06:56:29;;;;;;;3.67;0.90;;;2.60;88.70;;;;;;9178532;19;20025;-69
2024/01/15 06:59:36;;;;;;;4.95;1.38;;;2.60;88.70;;;;;;9178459;19;20081;-71
2024/01/15 07:02:45;;;;;;;3.08;1.25;;;2.50;88.80;;;;;;9174222;19;20010;-70
2024/01/15 07:05:54;;;;;;;4.93;1.50;;;2.60;88.80;;;;;;9176017;19;20018;-70
2024/01/15 07:09:02;;;;;;;5.80;1.40;;;2.50;88.70;;;;;;9178192;19;20018;-72
2024/01/15 07:12:07;;;;;;;4.57;1.30;;;2.60;88.80;;;;;;9174951;19;20428;-71
2024/01/15 07:15:18;;;;;;;3.13;1.10;;;2.60;88.80;;;;;;9175735;19;20022;-70
2024/01/15 07:18:23;;;;;;;4.38;1.40;;;2.50;88.80;;;;;;9169755;19;20452;-70
2024/01/15 07:21:34;;;;;;;8.65;1.90;;;2.50;88.70;;;;;;9176197;19;20014;-70
2024/01/15 07:24:40;;;;;;;6.18;1.70;;;2.50;88.70;;;;;;9171209;19;20019;-71
2024/01/15 07:27:48;;;;;;;8.50;2.30;;;2.50;88.70;;;;;;9176167;19;20011;-70
2024/01/15 07:30:56;;;;;;;9.25;2.15;;;2.50;88.70;;;;;;9174996;19;20015;-71
2024/01/15 07:34:04;;;;;;;4.90;2.10;;;2.50;88.80;;;;;;9174503;19;20018;-71
2024/01/15 07:37:12;;;;;;;8.82;2.63;;;2.50;88.80;;;;;;9175201;19;20052;-70
2024/01/15 07:40:20;;;;;;;8.35;2.30;;;2.50;88.80;;;;;;9174121;19;20010;-70
2024/01/15 07:43:26;;;;;;;9.93;2.10;;;2.40;88.80;;;;;;9177063;19;20014;-70
2024/01/15 07:46:34;;;;;;;2.75;1.92;;;2.40;88.80;;;;;;9174387;19;20019;-69
2024/01/15 07:49:40;;;;;;;7.30;2.38;;;2.40;88.80;;;;;;9172791;19;20018;-70
2024/01/15 07:52:50;;;;;;;5.72;2.40;;;2.40;89.40;;;;;;9175093;19;20567;-69
2024/01/15 07:55:59;;;;;;;6.40;2.70;;;2.40;88.80;;;;;;9176374;19;20018;-70
2024/01/15 07:59:06;;;;;;;8.15;2.20;;;2.40;89.40;;;;;;9173955;19;20014;-72
2024/01/15 08:02:12;;;;;;;8.80;2.60;;;2.40;88.80;;;;;;9175427;19;20022;-70
2024/01/15 08:05:20;;;;;;;3.83;2.33;;;2.40;89.40;;;;;;9173315;19;20487;-70
2024/01/15 08:08:31;;;;;;;11.35;4.38;;;2.40;88.80;;;;;;9173655;19;20027;-71
2024/01/15 08:11:38;;;;;;;6.82;1.83;;;2.40;88.80;;;;;;9175918;19;20018;-71
2024/01/15 08:14:45;;;;;;;6.15;1.80;;;2.40;88.80;;;;;;9173468;19;20015;-71
2024/01/15 08:17:53;;;;;;;8.25;1.58;;;2.30;88.80;;;;;;9169160;19;20480;-70
2024/01/15 08:21:03;;;;;;;7.13;1.90;;;2.30;88.80;;;;;;9173954;19;20025;-71
2024/01/15 08:24:14;;;;;;;7.40;2.13;;;2.30;88.80;;;;;;9175422;19;20420;-68
2024/01/15 08:27:19;;;;;;;5.38;1.45;;;2.30;88.80;;;;;;9171499;19;20021;-71
2024/01/15 08:30:27;;;;;;;13.05;1.80;;;2.30;88.80;;;;;;9174667;19;20015;-70
2024/01/15 08:33:34;;;;;;;7.55;1.20;;;2.30;89.50;;;;;;9175026;19;20048;-70
2024/01/15 08:36:41;;;;;;;13.48;2.28;;;2.30;88.90;;;;;;9174946;19;20543;-69
2024/01/15 08:39:49;;;;;;;11.80;1.65;;;2.30;88.90;;;;;;9175231;19;20549;-69
2024/01/15 08:42:58;;;;;;;3.80;1.50;;;2.20;88.90;;;;;;9173810;19;20018;-69
2024/01/15 08:46:06;;;;;;;5.45;1.20;;;2.30;89.00;;;;;;9170818;19;20392;-70
2024/01/15 08:49:15;;;;;;;9.70;2.47;;;2.30;89.00;;;;;;9174688;19;20018;-71
2024/01/15 08:52:20;;;;;;;17.15;1.58;;;2.20;88.90;;;;;;9174287;19;20105;-71
2024/01/15 08:55:30;;;;;;;8.00;1.42;;;2.30;89.00;;;;;;9173407;19;20014;-72
2024/01/15 08:58:36;;;;;;;10.52;1.70;;;2.40;89.10;;;;;;9171669;19;20099;-72
2024/01/15 09:01:44;;;;;;;8.85;1.60;;;2.30;89.10;;;;;;9177660;19;20025;-72
2024/01/15 09:04:51;;;;;;;5.25;1.30;;;2.30;89.10;;;;;;9181129;19;20014;-72
2024/01/15 09:07:59;;;;;;;7.05;2.10;;;2.30;89.10;;;;;;9178621;19;20033;-72
2024/01/15 09:11:07;;;;;;;8.02;1.55;;;2.30;89.10;;;;;;9183206;19;20017;-72
2024/01/15 09:14:15;;;;;;;4.25;1.58;;;2.30;89.20;;;;;;9182287;19;20026;-72
2024/01/15 09:17:23;;;;;;;6.32;1.85;;;2.30;89.30;;;;;;9176033;19;21015;-72
2024/01/15 09:20:31;;;;;;;5.50;1.50;;;2.30;89.30;;;;;;9182302;19;20014;-72
2024/01/15 09:23:37;;;;;;;6.60;1.40;;;2.30;89.30;;;;;;9182087;19;20022;-72
2024/01/15 09:26:48;;;;;;;3.75;1.40;;;2.40;89.40;;;;;;9179162;19;20130;-72
2024/01/15 09:29:53;;;;;;;5.38;1.33;;;2.40;89.40;;;;;;9181380;19;20018;-72
2024/01/15 09:33:01;;;;;;;11.27;1.63;;;2.40;89.40;;;;;;9182084;19;20029;-72
2024/01/15 09:36:08;;;;;;;10.35;1.73;;;2.40;89.40;;;;;;9181147;19;20385;-73
2024/01/15 09:39:16;;;;;;;6.85;1.23;;;2.50;89.50;;;;;;9180699;19;20018;-72
2024/01/15 09:42:26;;;;;;;7.50;1.10;;;2.50;89.50;;;;;;9176255;19;20014;-73
2024/01/15 09:45:38;;;;;;;5.43;1.33;;;2.50;89.40;;;;;;9180205;19;20015;-73
2024/01/15 09:48:43;;;;;;;8.32;1.52;;;2.50;89.40;;;;;;9177716;19;20133;-73
2024/01/15 09:51:51;;;;;;;11.18;1.48;;;2.50;89.40;;;;;;9178643;19;20019;-73
2024/01/15 09:55:11;;;;;;;7.47;1.70;;;2.60;89.40;;;;;;9181178;19;20483;-72
2024/01/15 09:58:22;;;;;;;7.03;1.42;;;2.60;89.40;;;;;;9179914;19;20014;-69
2024/01/15 10:01:28;;;;;;;2.53;1.40;;;2.60;89.40;;;;;;9180411;19;20018;-72
2024/01/15 10:04:36;;;;;;;8.43;1.85;;;2.70;89.50;;;;;;9181165;19;20018;-72
2024/01/15 10:07:42;;;;;;;8.60;2.08;;;2.70;89.50;;;;;;9176991;19;20010;-72
2024/01/15 10:10:50;;;;;;;12.13;1.95;;;2.70;89.60;;;;;;9179011;19;20025;-72
2024/01/15 10:13:59;;;;;;;4.72;1.38;;;2.70;89.50;;;;;;9182157;19;20027;-72
2024/01/15 10:17:17;;;;;;;12.95;2.22;;;2.70;89.40;;;;;;9176504;19;20018;-73
2024/01/15 10:20:24;;;;;;;10.82;2.08;;;2.70;89.40;;;;;;9180654;19;20074;-72
2024/01/15 10:23:34;;;;;;;15.02;2.38;;;2.70;89.50;;;;;;9179354;19;20018;-73
2024/01/15 10:26:39;;;;;;;9.02;1.67;;;2.80;89.60;;;;;;9177941;19;20105;-73
2024/01/15 10:29:50;;;;;;;6.38;2.22;;;2.80;89.70;;;;;;9178892;19;20029;-73
2024/01/15 10:33:01;;;;;;;8.15;1.90;;;2.90;89.70;;;;;;9180985;19;20017;-73
2024/01/15 10:36:13;;;;;;;13.93;2.42;;;2.90;89.80;;;;;;9180456;19;20022;-73
2024/01/15 10:39:19;;;;;;;10.18;1.65;;;3.00;89.90;;;;;;9177974;19;20014;-72
2024/01/15 10:42:26;;;;;;;12.02;2.75;;;3.10;89.90;;;;;;9181125;19;20025;-73
2024/01/15 10:45:34;;;;;;;15.50;3.50;;;3.10;89.90;;;;;;9179864;19;20014;-72
2024/01/15 10:48:43;;;;;;;9.65;1.85;;;3.20;90.00;;;;;;9177079;19;20014;-73
2024/01/15 10:51:50;;;;;;;8.70;2.03;;;3.30;90.00;;;;;;9175781;19;20023;-72
2024/01/15 10:54:59;;;;;;;13.98;2.35;;;3.30;90.00;;;;;;9178654;19;20014;-72
2024/01/15 10:58:10;;;;;;;6.80;1.40;;;3.40;90.00;;;;;;9172040;19;20026;-72
2024/01/15 11:01:20;;;;;;;10.38;1.98;;;3.40;90.00;;;;;;9177956;19;20006;-72
2024/01/15 11:04:28;;;;;;;9.10;1.95;;;3.40;89.90;;;;;;9178966;19;20353;-72
2024/01/15 11:07:36;;;;;;;12.20;1.27;;;3.50;89.90;;;;;;9177175;19;20014;-72
2024/01/15 11:10:46;;;;;;;13.88;1.85;;;3.50;89.80;;;;;;9178996;19;20023;-73
2024/01/15 11:13:54;;;;;;;8.20;1.42;;;3.50;89.70;;;;;;9178619;19;20345;-73
2024/01/15 11:17:02;;;;;;;10.30;1.40;;;3.50;89.70;;;;;;9173996;19;20061;-73
2024/01/15 11:20:10;;;;;;;3.67;1.48;;;3.50;89.70;;;;;;9176620;19;20021;-72
2024/01/15 11:23:46;;;;;;;5.38;1.90;;;3.50;89.60;;;;;;9176036;19;20057;-71
2024/01/15 11:26:58;;;;;;;15.63;2.10;;;3.50;89.60;;;;;;9176357;19;20030;-72
2024/01/15 11:30:10;;;;;;;5.40;1.40;;;3.50;89.50;;;;;;9175855;19;20023;-71
2024/01/15 11:33:38;;;;;;;4.95;1.27;;;3.60;89.60;;;;;;9177175;19;20393;-71
2024/01/15 11:37:07;;;;;;;9.82;1.80;;;3.60;89.40;;;;;;9178068;19;20044;-72
2024/01/15 11:40:16;;;;;;;11.38;1.23;;;3.60;89.40;;;;;;9176772;19;20018;-72
2024/01/15 11:43:23;;;;;;;6.22;1.10;;;3.60;89.40;;;;;;9176333;19;20507;-72
2024/01/15 11:46:39;;;;;;;6.53;1.90;;;3.60;89.30;;;;;;9176728;19;20018;-72
2024/01/15 11:50:11;;;;;;;5.80;1.52;;;3.50;89.30;;;;;;9176600;19;20014;-73
2024/01/15 11:53:22;;;;;;;9.23;1.45;;;3.60;89.50;;;;;;9174147;19;20015;-73
2024/01/15 11:56:28;;;;;;;9.65;1.58;;;3.60;89.50;;;;;;9175907;19;20018;-72
2024/01/15 11:59:35;;;;;;;6.80;1.20;;;3.60;89.50;;;;;;9176343;19;20133;-72
2024/01/15 12:02:41;;;;;;;4.88;1.23;;;3.60;89.50;;;;;;9175751;19;20097;-72
2024/01/15 12:05:52;;;;;;;7.30;1.67;;;3.60;89.50;;;;;;9175513;19;20018;-71
2024/01/15 12:09:09;;;;;;;2.10;0.98;;;3.60;89.50;;;;;;9172419;19;20029;-72
2024/01/15 12:12:26;;;;;;;8.27;1.70;;;3.70;89.50;;;;;;9176532;19;20014;-72
2024/01/15 12:15:32;;;;;;;6.13;1.10;;;3.60;89.50;;;;;;9177264;19;20495;-72
2024/01/15 12:18:40;;;;;;;8.35;1.17;;;3.60;89.40;;;;;;9172639;19;20506;-72
2024/01/15 12:21:48;;;;;;;7.78;1.35;;;3.60;89.40;;;;;;9176172;19;20019;-72
2024/01/15 12:24:57;;;;;;;4.60;0.90;;;3.60;89.40;;;;;;9175833;19;20022;-71
2024/01/15 12:28:04;;;;;;;10.05;1.17;;;3.60;89.40;;;;;;9175026;19;20030;-72
2024/01/15 12:31:11;;;;;;;4.03;0.82;;;3.60;89.30;;;;;;9176546;19;20011;-72
2024/01/15 12:34:17;;;;;;;0.70;0.50;;;3.60;89.30;;;;;;9173643;19;20018;-72
2024/01/15 12:37:27;;;;;;;5.82;1.08;;;3.60;89.20;;;;;;9175076;19;20041;-72
2024/01/15 12:40:34;;;;;;;4.43;1.02;;;3.60;89.30;;;;;;9175704;19;20480;-74
2024/01/15 12:43:44;;;;;;;5.25;1.15;;;3.60;89.30;;;;;;9176399;19;20499;-74
2024/01/15 12:46:51;;;;;;;9.07;1.30;;;3.50;89.20;;;;;;9173998;19;20601;-74
2024/01/15 12:49:59;;;;;;;3.08;1.00;;;3.50;89.30;;;;;;9171689;19;20014;-76
2024/01/15 12:53:22;;;;;;;7.30;1.30;;;3.50;89.30;;;;;;9171951;19;20021;-73
2024/01/15 12:56:30;;;;;;;11.75;1.35;;;3.60;89.40;;;;;;9172702;19;20095;-73
2024/01/15 12:59:35;;;;;;;11.40;1.42;;;3.60;89.40;;;;;;9173731;19;20081;-73
2024/01/15 13:02:43;;;;;;;6.50;1.27;;;3.60;89.40;;;;;;9174103;19;20026;-74
2024/01/15 13:05:51;;;;;;;10.57;1.48;;;3.60;89.50;;;;;;9172267;19;20049;-73
2024/01/15 13:09:01;;;;;;;7.20;1.15;;;3.60;89.50;;;;;;9169470;19;20627;-73
2024/01/15 13:12:08;;;;;;;4.50;0.93;;;3.60;89.60;;;;;;9173629;19;20439;-73
2024/01/15 13:15:15;;;;;;;7.32;1.15;;;3.60;89.60;;;;;;9173947;19;20485;-73
2024/01/15 13:18:21;;;;;;;2.78;0.80;;;3.60;89.60;;;;;;9169086;19;20024;-74
2024/01/15 13:21:29;;;;;;;2.83;0.80;;;3.60;89.60;;;;;;9172735;19;20018;-73
2024/01/15 13:24:37;;;;;;;2.50;0.70;;;3.60;89.50;;;;;;9172016;19;20015;-73
2024/01/15 13:27:44;;;;;;;1.45;0.43;;;3.60;89.50;;;;;;9172786;19;20021;-73
2024/01/15 13:30:50;;;;;;;1.42;0.63;;;3.60;89.30;;;;;;9170893;19;20015;-73
2024/01/15 13:33:58;;;;;;;2.38;0.75;;;3.60;89.30;;;;;;9173171;19;20366;-73
2024/01/15 13:37:04;;;;;;;6.38;0.82;;;3.60;89.30;;;;;;9173265;19;20018;-73
2024/01/15 13:40:16;;;;;;;3.05;0.70;;;3.60;89.30;;;;;;9171847;19;20082;-72
2024/01/15 13:43:22;;;;;;;2.35;0.88;;;3.60;89.30;;;;;;9171022;19;20015;-73
2024/01/15 13:46:31;;;;;;;1.77;0.88;;;3.60;89.20;;;;;;9173313;19;20025;-73
2024/01/15 13:49:37;;;;;;;6.97;0.88;;;3.60;89.20;;;;;;9179913;19;20010;-72
2024/01/15 13:52:47;;;;;;;10.15;1.02;;;3.60;89.10;;;;;;9179083;19;20022;-71
2024/01/15 13:55:55;;;;;;;5.88;1.20;;;3.60;89.00;;;;;;9180572;19;20190;-71
2024/01/15 13:59:04;;;;;;;5.72;1.25;;;3.60;89.00;;;;;;9182276;19;20026;-71
2024/01/15 14:02:09;;;;;;;4.30;1.38;;;3.60;88.90;;;;;;9182760;19;20029;-71
2024/01/15 14:05:17;;;;;;;9.93;1.95;;;3.60;88.90;;;;;;9182433;19;20022;-71
2024/01/15 14:08:23;;;;;;;4.10;1.45;;;3.60;89.00;;;;;;9177651;19;20476;-71
2024/01/15 14:11:33;;;;;;;5.43;1.48;;;3.60;89.00;;;;;;9181691;19;20015;-71
2024/01/15 14:14:39;;;;;;;4.85;1.23;;;3.60;89.00;;;;;;9181312;19;20376;-71
2024/01/15 14:17:47;;;;;;;11.30;2.30;;;3.60;88.90;;;;;;9177284;19;20029;-71
2024/01/15 14:20:53;;;;;;;5.28;1.40;;;3.60;88.90;;;;;;9180181;19;20026;-71
2024/01/15 14:24:01;;;;;;;10.73;2.03;;;3.60;88.90;;;;;;9180567;19;20026;-71
2024/01/15 14:27:09;;;;;;;11.50;1.80;;;3.60;88.90;;;;;;9178794;19;20011;-72
2024/01/15 14:30:20;;;;;;;6.60;1.77;;;3.50;88.90;;;;;;9176871;19;20528;-71
2024/01/15 14:33:26;;;;;;;4.60;1.17;;;3.50;88.90;;;;;;9180371;19;20023;-71
2024/01/15 14:36:34;;;;;;;4.80;1.25;;;3.60;89.00;;;;;;9180881;19;20030;-71
2024/01/15 14:39:39;;;;;;;10.63;1.67;;;3.60;89.00;;;;;;9180271;19;20463;-71
2024/01/15 14:42:49;;;;;;;12.73;1.60;;;3.60;88.90;;;;;;9176309;19;20015;-70
2024/01/15 14:45:55;;;;;;;13.60;1.80;;;3.60;88.90;;;;;;9180658;19;20361;-71
2024/01/15 14:49:03;;;;;;;5.53;1.48;;;3.50;88.80;;;;;;9179854;19;20022;-70
2024/01/15 14:52:09;;;;;;;14.93;2.83;;;3.50;88.90;;;;;;9180007;19;20010;-70
2024/01/15 14:55:16;;;;;;;7.60;1.67;;;3.50;88.80;;;;;;9179083;19;20023;-71
2024/01/15 14:58:24;;;;;;;7.47;1.38;;;3.50;88.80;;;;;;9177333;19;20457;-71
2024/01/15 15:01:32;;;;;;;15.25;1.65;;;3.50;88.80;;;;;;9179212;19;20029;-72
2024/01/15 15:04:38;;;;;;;11.93;1.77;;;3.50;88.80;;;;;;9177228;19;20018;-71
2024/01/15 15:07:46;;;;;;;8.73;1.48;;;3.40;88.70;;;;;;9175896;19;20019;-72
2024/01/15 15:10:53;;;;;;;8.30;2.58;;;3.40;88.70;;;;;;9176472;19;20013;-72
2024/01/15 15:14:03;;;;;;;7.18;2.00;;;3.40;88.70;;;;;;9178488;19;20046;-72
2024/01/15 15:17:09;;;;;;;12.75;1.92;;;3.40;88.70;;;;;;9175812;19;20637;-72
2024/01/15 15:20:18;;;;;;;11.57;2.25;;;3.40;88.70;;;;;;9178770;19;20524;-71
2024/01/15 15:23:30;;;;;;;9.80;2.00;;;3.30;88.70;;;;;;9177845;19;20029;-73
2024/01/15 15:26:37;;;;;;;16.90;1.98;;;3.30;88.60;;;;;;9173318;19;20022;-72
2024/01/15 15:29:48;;;;;;;15.85;2.08;;;3.30;88.70;;;;;;9175638;19;20503;-71
2024/01/15 15:32:55;;;;;;;7.88;1.85;;;3.30;88.70;;;;;;9176074;19;20029;-71
2024/01/15 15:36:04;;;;;;;11.90;1.80;;;3.30;88.70;;;;;;9177262;19;20058;-71
2024/01/15 15:39:15;;;;;;;15.98;1.67;;;3.30;88.70;;;;;;9175859;19;20029;-71
2024/01/15 15:42:21;;;;;;;12.95;1.90;;;3.20;88.60;;;;;;9174963;19;20485;-71
2024/01/15 15:45:31;;;;;;;17.67;2.15;;;3.20;88.60;;;;;;9175864;19;20018;-70
2024/01/15 15:48:37;;;;;;;8.68;2.60;;;3.20;88.60;;;;;;9175239;19;20053;-70
2024/01/15 15:51:44;;;;;;;10.30;1.98;;;3.20;89.20;;;;;;9174753;19;20014;-70
2024/01/15 15:54:51;;;;;;;10.27;1.50;;;3.10;88.50;;;;;;9177117;19;20472;-71
2024/01/15 15:58:01;;;;;;;9.45;1.45;;;3.10;88.50;;;;;;9175935;19;20018;-72
2024/01/15 16:01:09;;;;;;;11.43;1.90;;;3.10;88.50;;;;;;9175294;19;20021;-71
2024/01/15 16:04:17;;;;;;;14.98;3.72;;;3.10;88.50;;;;;;9174211;19;20050;-70
2024/01/15 16:07:28;;;;;;;10.02;2.13;;;3.00;88.40;;;;;;9165020;19;20323;-71
2024/01/15 16:10:35;;;;;;;22.73;2.47;;;3.00;88.50;;;;;;9174196;19;20014;-77
2024/01/15 16:13:41;;;;;;;17.05;2.20;;;3.00;88.50;;;;;;9174823;19;20440;-68
2024/01/15 16:16:56;;;;;;;23.30;2.47;;;3.00;88.50;;;;;;9172864;19;20373;-69
2024/01/15 16:20:22;;;;;;;12.90;2.78;;;3.00;88.50;;;;;;9174804;19;20045;-68
2024/01/15 16:23:49;;;;;;;9.63;1.98;;;3.00;88.60;;;;;;9171808;19;20018;-68
2024/01/15 16:27:15;;;;;;;16.17;1.80;;;2.90;88.50;;;;;;9174121;19;20022;-67